createdAt,value
2023-03-11T00:00:00.297Z,0
2023-03-11T00:05:00.335Z,0
2023-03-11T00:10:00.308Z,0
2023-03-11T00:15:00.301Z,0
2023-03-11T00:20:00.798Z,0
2023-03-11T00:25:00.305Z,0
2023-03-11T00:30:00.299Z,0
2023-03-11T00:35:00.311Z,0
2023-03-11T00:40:00.305Z,0
2023-03-11T00:45:00.302Z,0
2023-03-11T00:50:00.320Z,0
2023-03-11T00:55:00.304Z,0
2023-03-11T01:00:00.307Z,0
2023-03-11T01:05:00.302Z,0
2023-03-11T01:10:00.299Z,0
2023-03-11T01:15:00.302Z,0
2023-03-11T01:20:00.312Z,0
2023-03-11T01:25:00.287Z,0
2023-03-11T01:30:00.319Z,0
2023-03-11T01:35:00.318Z,0
2023-03-11T01:40:00.303Z,0
2023-03-11T01:45:00.303Z,0
2023-03-11T01:50:00.319Z,0
2023-03-11T01:55:00.300Z,0
2023-03-11T02:00:00.325Z,0
2023-03-11T02:05:00.280Z,0
2023-03-11T02:10:00.302Z,0
2023-03-11T02:15:00.313Z,0
2023-03-11T02:20:00.291Z,0
2023-03-11T02:25:00.311Z,0
2023-03-11T02:30:00.304Z,0
2023-03-11T02:35:00.324Z,0
2023-03-11T02:40:00.304Z,0
2023-03-11T02:45:00.310Z,0
2023-03-11T02:50:00.316Z,0
2023-03-11T02:55:00.328Z,0
2023-03-11T03:00:00.309Z,0
2023-03-11T03:05:00.286Z,0
2023-03-11T03:10:00.298Z,0
2023-03-11T03:15:00.302Z,0
2023-03-11T03:20:00.297Z,0
2023-03-11T03:25:00.333Z,0
2023-03-11T03:30:00.291Z,0
2023-03-11T03:35:00.288Z,0
2023-03-11T03:40:00.309Z,0
2023-03-11T03:45:00.329Z,0
2023-03-11T03:50:00.298Z,0
2023-03-11T03:55:00.320Z,0
2023-03-11T04:00:00.316Z,0
2023-03-11T04:05:00.472Z,0
2023-03-11T04:10:00.307Z,0
2023-03-11T04:15:00.334Z,0
2023-03-11T04:20:00.311Z,0
2023-03-11T04:25:00.340Z,0
2023-03-11T04:30:00.300Z,0
2023-03-11T04:35:00.314Z,0
2023-03-11T04:40:00.308Z,0
2023-03-11T04:45:00.299Z,0
2023-03-11T04:50:00.305Z,0
2023-03-11T04:55:00.311Z,0
2023-03-11T05:00:00.303Z,0
2023-03-11T05:05:00.340Z,0
2023-03-11T05:10:00.314Z,0
2023-03-11T05:15:00.335Z,0
2023-03-11T05:20:00.302Z,0
2023-03-11T05:25:00.305Z,0
2023-03-11T05:30:00.310Z,0
2023-03-11T05:35:00.307Z,7
2023-03-11T05:40:00.319Z,14
2023-03-11T05:45:00.318Z,35
2023-03-11T05:50:00.323Z,69
2023-03-11T05:55:00.314Z,137
2023-03-11T06:00:00.298Z,265
2023-03-11T06:05:00.422Z,370
2023-03-11T06:10:00.294Z,568
2023-03-11T06:15:00.305Z,816
2023-03-11T06:20:00.325Z,1034
2023-03-11T06:25:00.322Z,1308
2023-03-11T06:30:00.297Z,1654
2023-03-11T06:35:00.346Z,1861
2023-03-11T06:40:00.324Z,2096
2023-03-11T06:45:00.321Z,2360
2023-03-11T06:50:00.348Z,2360
2023-03-11T06:55:00.349Z,2653
2023-03-11T07:00:00.356Z,2982
2023-03-11T07:05:00.343Z,2982
2023-03-11T07:10:00.414Z,3354
2023-03-11T07:15:00.329Z,3354
2023-03-11T07:20:00.367Z,3354
2023-03-11T07:25:00.342Z,3771
2023-03-11T07:30:00.373Z,3771
2023-03-11T07:35:00.362Z,4002
2023-03-11T07:40:00.382Z,4002
2023-03-11T07:45:00.359Z,4237
2023-03-11T07:50:00.355Z,4237
2023-03-11T07:55:00.378Z,4237
2023-03-11T08:00:00.332Z,4237
2023-03-11T08:05:00.401Z,4768
2023-03-11T08:10:00.397Z,4768
2023-03-11T08:15:00.323Z,4768
2023-03-11T08:20:00.329Z,4768
2023-03-11T08:25:00.395Z,5358
2023-03-11T08:30:00.374Z,5416
2023-03-11T08:35:00.368Z,6024
2023-03-11T08:40:00.332Z,6024
2023-03-11T08:45:00.320Z,6772
2023-03-11T08:50:00.353Z,6772
2023-03-11T08:55:00.356Z,6772
2023-03-11T09:00:00.329Z,6772
2023-03-11T09:05:00.378Z,7813
2023-03-11T09:10:00.365Z,7813
2023-03-11T09:15:00.369Z,7813
2023-03-11T09:20:00.356Z,7813
2023-03-11T09:25:00.357Z,8450
2023-03-11T09:30:00.368Z,8782
2023-03-11T09:35:00.320Z,8782
2023-03-11T09:40:00.381Z,8782
2023-03-11T09:45:00.331Z,8782
2023-03-11T09:50:00.367Z,8782
2023-03-11T09:55:00.354Z,9881
2023-03-11T10:00:00.327Z,9881
2023-03-11T10:05:00.417Z,9881
2023-03-11T10:10:00.383Z,11105
2023-03-11T10:15:00.355Z,11105
2023-03-11T10:20:00.347Z,12488
2023-03-11T10:25:00.385Z,14054
2023-03-11T10:30:00.344Z,14054
2023-03-11T10:35:00.387Z,14054
2023-03-11T10:40:00.345Z,12482
2023-03-11T10:45:00.431Z,12482
2023-03-11T10:50:00.313Z,12482
2023-03-11T10:55:00.363Z,12482
2023-03-11T11:00:00.350Z,12482
2023-03-11T11:05:00.376Z,12482
2023-03-11T11:10:00.329Z,12482
2023-03-11T11:15:00.381Z,12624
2023-03-11T11:20:00.329Z,12624
2023-03-11T11:25:00.406Z,12624
2023-03-11T11:30:00.369Z,12624
2023-03-11T11:35:00.365Z,12624
2023-03-11T11:40:00.363Z,12624
2023-03-11T11:45:00.348Z,12624
2023-03-11T11:50:00.464Z,12624
2023-03-11T11:55:00.358Z,12624
2023-03-11T12:00:00.366Z,12624
2023-03-11T12:05:00.466Z,13241
2023-03-11T12:10:09.802Z,13241
2023-03-11T12:15:00.370Z,15955
2023-03-11T12:20:00.358Z,17927
2023-03-11T12:25:00.323Z,17927
2023-03-11T12:30:00.364Z,20160
2023-03-11T12:35:00.317Z,22657
2023-03-11T12:40:00.368Z,23933
2023-03-11T12:45:00.353Z,26928
2023-03-11T12:50:01.810Z,30255
2023-03-11T12:55:00.429Z,20119
2023-03-11T13:00:00.365Z,30740
2023-03-11T13:05:00.381Z,32870
2023-03-11T13:10:00.378Z,36983
2023-03-11T13:15:02.466Z,32636
2023-03-11T13:20:00.375Z,36966
2023-03-11T13:25:00.366Z,41668
2023-03-11T13:30:00.367Z,41668
2023-03-11T13:35:00.370Z,45290
2023-03-11T13:40:00.344Z,50921
2023-03-11T13:45:00.381Z,43722
2023-03-11T13:50:00.366Z,40644
2023-03-11T13:55:00.368Z,12557
2023-03-11T14:00:00.400Z,59347
2023-03-11T14:05:00.369Z,59347
2023-03-11T14:10:00.335Z,51642
2023-03-11T14:15:00.357Z,56507
2023-03-11T14:20:00.327Z,63592
2023-03-11T14:25:00.361Z,63592
2023-03-11T14:30:00.326Z,40804
2023-03-11T14:35:00.368Z,31725
2023-03-11T14:40:00.358Z,46270
2023-03-11T14:45:00.334Z,30269
2023-03-11T14:50:00.392Z,35116
2023-03-11T14:55:00.499Z,44566
2023-03-11T15:00:00.375Z,39274
2023-03-11T15:05:00.748Z,39274
2023-03-11T15:10:00.333Z,30206
2023-03-11T15:15:00.328Z,25246
2023-03-11T15:20:00.373Z,36957
2023-03-11T15:25:00.319Z,35694
2023-03-11T15:30:00.340Z,31318
2023-03-11T15:35:00.352Z,23983
2023-03-11T15:40:00.321Z,27701
2023-03-11T15:45:00.344Z,36124
2023-03-11T15:50:00.374Z,47643
2023-03-11T15:55:00.394Z,41812
2023-03-11T16:00:00.366Z,47119
2023-03-11T16:05:00.495Z,35711
2023-03-11T16:10:01.050Z,41049
2023-03-11T16:15:00.359Z,10097
2023-03-11T16:20:00.319Z,10097
2023-03-11T16:25:00.380Z,7967
2023-03-11T16:30:00.357Z,6268
2023-03-11T16:35:00.308Z,5576
2023-03-11T16:40:00.304Z,4400
2023-03-11T16:45:01.773Z,3845
2023-03-11T16:50:00.426Z,3467
2023-03-11T16:55:00.302Z,3082
2023-03-11T17:00:00.342Z,2737
2023-03-11T17:05:00.423Z,2430
2023-03-11T17:10:00.534Z,1917
2023-03-11T17:15:00.333Z,1513
2023-03-11T17:20:00.321Z,1194
2023-03-11T17:25:00.363Z,839
2023-03-11T17:30:00.315Z,589
2023-03-11T17:35:00.366Z,372
2023-03-11T17:40:00.396Z,224
2023-03-11T17:45:00.333Z,136
2023-03-11T17:50:00.377Z,69
2023-03-11T17:55:00.342Z,29
2023-03-11T18:00:00.388Z,15
2023-03-11T18:05:00.360Z,8
2023-03-11T18:10:00.313Z,8
2023-03-11T18:15:00.341Z,8
2023-03-11T18:20:00.335Z,0
2023-03-11T18:25:00.351Z,0
2023-03-11T18:30:00.309Z,0
2023-03-11T18:35:00.336Z,0
2023-03-11T18:40:00.311Z,0
2023-03-11T18:45:00.328Z,0
2023-03-11T18:50:00.343Z,0
2023-03-11T18:55:00.366Z,0
2023-03-11T19:00:00.377Z,0
2023-03-11T19:05:00.442Z,0
2023-03-11T19:10:00.357Z,0
2023-03-11T19:15:00.344Z,0
2023-03-11T19:20:00.372Z,0
2023-03-11T19:25:00.358Z,0
2023-03-11T19:30:00.339Z,0
2023-03-11T19:35:00.360Z,0
2023-03-11T19:40:00.316Z,0
2023-03-11T19:45:00.353Z,0
2023-03-11T19:50:00.374Z,0
2023-03-11T19:55:00.370Z,0
2023-03-11T20:00:00.331Z,0
2023-03-11T20:05:00.437Z,0
2023-03-11T20:10:00.352Z,0
2023-03-11T20:15:00.329Z,0
2023-03-11T20:20:00.353Z,0
2023-03-11T20:25:00.308Z,0
2023-03-11T20:30:00.397Z,0
2023-03-11T20:35:00.436Z,0
2023-03-11T20:40:00.311Z,0
2023-03-11T20:45:00.316Z,0
2023-03-11T20:50:00.330Z,0
2023-03-11T20:55:00.371Z,0
2023-03-11T21:00:00.479Z,0
2023-03-11T21:05:00.322Z,0
2023-03-11T21:10:00.310Z,0
2023-03-11T21:15:00.356Z,0
2023-03-11T21:20:00.375Z,0
2023-03-11T21:25:00.345Z,0
2023-03-11T21:30:00.396Z,0
2023-03-11T21:35:00.420Z,0
2023-03-11T21:40:00.384Z,0
2023-03-11T21:45:00.366Z,0
2023-03-11T21:50:00.325Z,0
2023-03-11T21:55:00.404Z,0
2023-03-11T22:00:00.435Z,0
2023-03-11T22:05:00.394Z,0
2023-03-11T22:10:00.357Z,0
2023-03-11T22:15:00.311Z,0
2023-03-11T22:20:00.358Z,0
2023-03-11T22:25:00.335Z,0
2023-03-11T22:30:00.313Z,0
2023-03-11T22:35:00.316Z,0
2023-03-11T22:40:00.306Z,0
2023-03-11T22:45:00.326Z,0
2023-03-11T22:50:00.308Z,0
2023-03-11T22:55:00.308Z,0
2023-03-11T23:00:00.318Z,0
2023-03-11T23:05:00.339Z,0
2023-03-11T23:10:00.310Z,0
2023-03-11T23:15:00.321Z,0
2023-03-11T23:20:00.329Z,0
2023-03-11T23:25:00.314Z,0
2023-03-11T23:30:00.335Z,0
2023-03-11T23:35:00.305Z,0
2023-03-11T23:40:00.316Z,0
2023-03-11T23:45:00.312Z,0
2023-03-11T23:50:00.322Z,0
2023-03-11T23:55:00.317Z,0
